createdAt,value
2018-04-27T00:02:09.426Z,2.93
2018-04-27T00:04:37.648Z,3.27
2018-04-27T00:07:05.111Z,3.00
2018-04-27T00:09:32.557Z,3.10
2018-04-27T00:12:00.018Z,2.80
2018-04-27T00:14:27.492Z,3.27
2018-04-27T00:16:54.950Z,3.60
2018-04-27T00:19:22.426Z,3.33
2018-04-27T00:21:49.878Z,3.00
2018-04-27T00:24:17.327Z,3.60
2018-04-27T00:26:44.803Z,3.57
2018-04-27T00:29:12.253Z,3.43
2018-04-27T00:31:39.715Z,3.60
2018-04-27T00:34:07.165Z,3.53
2018-04-27T00:36:34.620Z,3.77
2018-04-27T00:39:02.109Z,3.67
2018-04-27T00:41:36.944Z,3.50
2018-04-27T00:44:05.223Z,3.20
2018-04-27T00:46:33.445Z,3.40
2018-04-27T00:49:00.909Z,3.50
2018-04-27T00:51:28.379Z,3.13
2018-04-27T00:53:55.845Z,3.67
2018-04-27T00:56:23.307Z,3.03
2018-04-27T00:58:54.457Z,3.10
2018-04-27T01:01:21.933Z,3.20
2018-04-27T01:03:49.435Z,3.30
2018-04-27T01:06:16.892Z,3.20
2018-04-27T01:08:44.405Z,3.67
2018-04-27T01:11:11.883Z,3.37
2018-04-27T01:13:39.357Z,4.00
2018-04-27T01:16:06.851Z,3.97
2018-04-27T01:18:35.090Z,3.60
2018-04-27T01:21:02.606Z,3.00
2018-04-27T01:23:30.061Z,3.73
2018-04-27T01:25:57.520Z,3.30
2018-04-27T01:28:25.019Z,3.40
2018-04-27T01:30:52.553Z,3.37
2018-04-27T01:33:20.049Z,3.83
2018-04-27T01:35:47.517Z,3.43
2018-04-27T01:38:14.994Z,3.33
2018-04-27T01:40:42.503Z,6.30
2018-04-27T01:43:09.984Z,4.90
2018-04-27T01:45:37.456Z,3.70
2018-04-27T01:48:04.933Z,4.40
2018-04-27T01:50:32.379Z,3.97
2018-04-27T01:53:00.621Z,3.90
2018-04-27T01:55:28.108Z,3.63
2018-04-27T01:57:57.705Z,4.60
2018-04-27T02:00:25.172Z,4.27
2018-04-27T02:02:52.633Z,3.97
2018-04-27T02:05:20.137Z,4.20
2018-04-27T02:07:47.642Z,3.57
2018-04-27T02:10:15.135Z,4.07
2018-04-27T02:12:42.604Z,3.83
2018-04-27T02:15:10.098Z,3.90
2018-04-27T02:17:41.210Z,3.20
2018-04-27T02:20:08.672Z,3.53
2018-04-27T02:22:36.159Z,3.10
2018-04-27T02:25:04.420Z,2.90
2018-04-27T02:27:31.885Z,3.73
2018-04-27T02:29:59.401Z,2.90
2018-04-27T02:32:26.900Z,3.23
2018-04-27T02:34:54.391Z,2.87
2018-04-27T02:37:21.850Z,3.47
2018-04-27T02:39:56.547Z,3.30
2018-04-27T02:42:24.070Z,4.17
2018-04-27T02:44:51.546Z,3.80
2018-04-27T02:47:19.026Z,3.77
2018-04-27T02:49:46.507Z,4.27
2018-04-27T02:52:13.964Z,2.80
2018-04-27T02:54:41.438Z,3.83
2018-04-27T02:57:08.933Z,3.60
2018-04-27T02:59:36.433Z,4.33
2018-04-27T03:02:03.903Z,4.50
2018-04-27T03:04:38.001Z,3.77
2018-04-27T03:07:06.214Z,4.03
2018-04-27T03:09:33.699Z,4.47
2018-04-27T03:12:01.176Z,4.43
2018-04-27T03:14:28.627Z,4.67
2018-04-27T03:16:56.114Z,3.03
2018-04-27T03:19:28.065Z,2.90
2018-04-27T03:21:56.317Z,3.20
2018-04-27T03:24:23.817Z,3.10
2018-04-27T03:26:52.063Z,5.07
2018-04-27T03:29:19.517Z,3.37
2018-04-27T03:31:46.990Z,4.03
2018-04-27T03:34:21.850Z,3.77
2018-04-27T03:36:49.286Z,3.20
2018-04-27T03:39:16.762Z,3.40
2018-04-27T03:41:44.256Z,4.30
2018-04-27T03:44:11.762Z,3.57
2018-04-27T03:46:39.236Z,4.10
2018-04-27T03:49:06.729Z,3.30
2018-04-27T03:51:34.197Z,3.33
2018-04-27T03:54:01.686Z,3.57
2018-04-27T03:56:29.970Z,3.87
2018-04-27T03:58:57.448Z,3.77
2018-04-27T04:01:36.693Z,4.00
2018-04-27T04:04:16.007Z,3.20
2018-04-27T04:06:43.493Z,3.63
2018-04-27T04:09:11.790Z,3.53
2018-04-27T04:11:39.271Z,3.03
2018-04-27T04:14:07.568Z,3.50
2018-04-27T04:16:35.054Z,3.47
2018-04-27T04:19:02.555Z,3.10
2018-04-27T04:21:30.028Z,3.70
2018-04-27T04:23:58.286Z,3.33
2018-04-27T04:26:25.747Z,3.37
2018-04-27T04:28:53.260Z,3.90
2018-04-27T04:31:20.751Z,3.80
2018-04-27T04:33:48.237Z,4.47
2018-04-27T04:36:16.518Z,4.30
2018-04-27T04:38:43.976Z,4.07
2018-04-27T04:41:11.454Z,4.47
2018-04-27T04:43:38.944Z,3.57
2018-04-27T04:46:06.399Z,4.10
2018-04-27T04:48:33.923Z,4.30
2018-04-27T04:51:01.444Z,3.80
2018-04-27T04:53:28.911Z,3.67
2018-04-27T04:55:56.434Z,3.70
2018-04-27T04:58:24.711Z,3.20
2018-04-27T05:00:52.278Z,4.37
2018-04-27T05:03:19.781Z,5.50
2018-04-27T05:05:47.285Z,3.10
2018-04-27T05:08:14.791Z,4.13
2018-04-27T05:10:42.367Z,3.80
2018-04-27T05:13:09.793Z,3.93
2018-04-27T05:15:38.036Z,4.00
2018-04-27T05:18:26.070Z,3.60
2018-04-27T05:20:53.621Z,4.37
2018-04-27T05:23:21.124Z,3.70
2018-04-27T05:25:49.365Z,3.97
2018-04-27T05:28:16.961Z,4.13
2018-04-27T05:30:45.215Z,3.80
2018-04-27T05:33:12.674Z,3.40
2018-04-27T05:35:40.144Z,3.30
2018-04-27T05:38:07.638Z,3.73
2018-04-27T05:40:35.137Z,3.87
2018-04-27T05:43:02.623Z,4.13
2018-04-27T05:45:31.082Z,3.00
2018-04-27T05:47:58.566Z,4.70
2018-04-27T05:50:27.656Z,3.03
2018-04-27T05:52:55.917Z,3.10
2018-04-27T05:55:23.398Z,3.53
2018-04-27T05:57:51.912Z,3.27
2018-04-27T06:00:19.373Z,3.90
2018-04-27T06:02:46.854Z,3.70
2018-04-27T06:05:14.305Z,3.53
2018-04-27T06:07:41.790Z,3.03
2018-04-27T06:10:09.259Z,3.30
2018-04-27T06:12:36.710Z,3.30
2018-04-27T06:15:04.233Z,3.60
2018-04-27T06:17:31.723Z,3.43
2018-04-27T06:19:59.971Z,3.47
2018-04-27T06:22:27.481Z,3.30
2018-04-27T06:24:54.951Z,3.33
2018-04-27T06:27:22.426Z,3.80
2018-04-27T06:29:49.887Z,3.00
2018-04-27T06:32:17.382Z,2.80
2018-04-27T06:34:44.851Z,3.73
2018-04-27T06:37:12.313Z,3.47
2018-04-27T06:39:40.580Z,3.63
2018-04-27T06:42:08.049Z,3.50
2018-04-27T06:44:35.522Z,3.53
2018-04-27T06:47:03.038Z,3.17
2018-04-27T06:49:30.599Z,3.10
2018-04-27T06:51:58.083Z,2.90
2018-04-27T06:54:25.580Z,3.07
2018-04-27T06:56:53.066Z,3.20
2018-04-27T06:59:20.595Z,2.90
2018-04-27T07:01:48.789Z,3.07
2018-04-27T07:04:16.276Z,3.43
2018-04-27T07:06:43.734Z,3.20
2018-04-27T07:09:12.012Z,2.50
2018-04-27T07:11:40.317Z,1.73
2018-04-27T07:14:08.561Z,1.50
2018-04-27T07:16:36.054Z,2.03
2018-04-27T07:19:03.522Z,1.80
2018-04-27T07:21:31.022Z,2.00
2018-04-27T07:23:58.505Z,2.23
2018-04-27T07:26:25.982Z,1.70
2018-04-27T07:28:53.462Z,1.77
2018-04-27T07:31:21.652Z,2.50
2018-04-27T07:33:49.744Z,1.80
2018-04-27T07:36:17.329Z,2.07
2018-04-27T07:38:44.820Z,2.10
2018-04-27T07:41:12.410Z,1.67
2018-04-27T07:43:39.894Z,2.60
2018-04-27T07:46:07.390Z,1.70
2018-04-27T07:48:35.109Z,2.20
2018-04-27T07:51:02.610Z,1.77
2018-04-27T07:53:30.864Z,1.70
2018-04-27T07:55:58.346Z,1.80
2018-04-27T07:58:25.836Z,2.07
2018-04-27T08:00:53.310Z,1.50
2018-04-27T08:03:20.807Z,2.20
2018-04-27T08:05:48.293Z,1.80
2018-04-27T08:08:15.815Z,1.97
2018-04-27T08:10:43.271Z,2.70
2018-04-27T08:13:10.758Z,1.83
2018-04-27T08:15:38.274Z,1.80
2018-04-27T08:18:06.525Z,1.87
2018-04-27T08:20:33.997Z,2.70
2018-04-27T08:23:01.477Z,1.60
2018-04-27T08:25:30.609Z,2.23
2018-04-27T08:27:58.111Z,2.20
2018-04-27T08:30:25.608Z,2.13
2018-04-27T08:32:53.098Z,2.30
2018-04-27T08:35:20.579Z,2.13
2018-04-27T08:37:48.843Z,2.10
2018-04-27T08:40:16.305Z,2.00
2018-04-27T08:42:44.567Z,2.73
2018-04-27T08:45:12.041Z,2.03
2018-04-27T08:47:40.280Z,2.40
2018-04-27T08:50:07.770Z,2.00
2018-04-27T08:52:35.232Z,2.10
2018-04-27T08:55:03.496Z,2.10
2018-04-27T08:57:30.961Z,1.80
2018-04-27T08:59:59.207Z,2.30
2018-04-27T09:02:26.684Z,2.57
2018-04-27T09:04:54.163Z,2.00
2018-04-27T09:07:22.431Z,2.63
2018-04-27T09:09:50.673Z,2.73
2018-04-27T09:12:18.186Z,2.60
2018-04-27T09:14:46.445Z,2.43
2018-04-27T09:17:14.674Z,2.60
2018-04-27T09:19:42.158Z,2.33
2018-04-27T09:22:09.642Z,2.60
2018-04-27T09:24:37.116Z,2.10
2018-04-27T09:27:04.625Z,2.00
2018-04-27T09:29:32.096Z,3.23
2018-04-27T09:31:59.602Z,3.00
2018-04-27T09:34:27.073Z,2.30
2018-04-27T09:36:55.312Z,2.90
2018-04-27T09:39:23.568Z,2.10
2018-04-27T09:41:51.081Z,2.10
2018-04-27T09:44:18.618Z,2.43
2018-04-27T09:46:46.128Z,2.67
2018-04-27T09:49:13.598Z,2.30
2018-04-27T09:51:41.095Z,1.80
2018-04-27T09:54:08.579Z,2.47
2018-04-27T09:56:36.143Z,2.10
2018-04-27T09:59:03.654Z,2.00
2018-04-27T10:01:31.173Z,2.20
2018-04-27T10:03:58.717Z,2.20
2018-04-27T10:06:27.072Z,2.27
2018-04-27T10:08:54.562Z,2.13
2018-04-27T10:11:22.049Z,2.60
2018-04-27T10:13:49.533Z,2.77
2018-04-27T10:16:17.008Z,2.63
2018-04-27T10:18:45.246Z,2.60
2018-04-27T10:21:13.501Z,3.30
2018-04-27T10:23:40.981Z,4.00
2018-04-27T10:26:09.206Z,3.87
2018-04-27T10:28:36.694Z,3.53
2018-04-27T10:31:04.209Z,3.70
2018-04-27T10:33:32.432Z,4.27
2018-04-27T10:35:59.944Z,4.10
2018-04-27T10:38:27.616Z,4.47
2018-04-27T10:40:55.108Z,3.83
2018-04-27T10:43:22.583Z,4.50
2018-04-27T10:45:50.105Z,4.23
2018-04-27T10:48:17.570Z,4.40
2018-04-27T10:50:45.044Z,4.53
2018-04-27T10:53:12.553Z,4.67
2018-04-27T10:55:40.047Z,4.00
2018-04-27T10:58:07.514Z,5.37
2018-04-27T11:00:35.025Z,4.20
2018-04-27T11:03:02.489Z,4.40
2018-04-27T11:05:30.124Z,6.13
2018-04-27T11:07:57.620Z,4.70
2018-04-27T11:10:25.094Z,5.00
2018-04-27T11:12:52.608Z,5.40
2018-04-27T11:15:20.102Z,5.43
2018-04-27T11:17:47.573Z,5.23
2018-04-27T11:20:15.067Z,4.80
2018-04-27T11:22:42.572Z,6.07
2018-04-27T11:25:10.050Z,4.13
2018-04-27T11:27:37.509Z,4.40
2018-04-27T11:30:04.999Z,3.97
2018-04-27T11:32:32.544Z,4.13
2018-04-27T11:35:00.837Z,4.17
2018-04-27T11:37:28.312Z,3.73
2018-04-27T11:39:55.801Z,3.70
2018-04-27T11:42:23.301Z,4.63
2018-04-27T11:47:23.165Z,3.60
2018-04-27T11:49:50.629Z,4.17
2018-04-27T11:52:19.137Z,3.70
2018-04-27T11:54:46.614Z,4.13
2018-04-27T11:57:14.091Z,3.50
2018-04-27T11:59:41.582Z,4.00
2018-04-27T12:02:09.796Z,3.40
2018-04-27T12:04:37.266Z,3.50
2018-04-27T12:07:04.750Z,3.30
2018-04-27T12:09:32.231Z,3.13
2018-04-27T12:11:59.747Z,2.70
2018-04-27T12:14:27.218Z,3.23
2018-04-27T12:16:54.685Z,3.43
2018-04-27T12:19:22.156Z,3.30
2018-04-27T12:21:49.694Z,3.17
2018-04-27T12:24:17.235Z,4.00
2018-04-27T12:26:45.015Z,3.40
2018-04-27T12:29:13.272Z,3.50
2018-04-27T12:31:40.893Z,4.47
2018-04-27T12:34:08.294Z,4.13
2018-04-27T12:36:35.843Z,4.20
2018-04-27T12:39:04.083Z,4.00
2018-04-27T12:41:31.585Z,3.77
2018-04-27T12:43:59.081Z,3.57
2018-04-27T12:46:26.575Z,4.40
2018-04-27T12:48:54.871Z,4.30
2018-04-27T12:51:23.122Z,4.60
2018-04-27T12:53:50.618Z,4.90
2018-04-27T12:56:18.097Z,4.20
2018-04-27T12:58:45.571Z,4.23
2018-04-27T13:01:13.061Z,4.27
2018-04-27T13:03:41.309Z,5.60
2018-04-27T13:06:08.752Z,4.13
2018-04-27T13:08:36.281Z,3.90
2018-04-27T13:11:03.809Z,4.17
2018-04-27T13:13:32.147Z,2.93
2018-04-27T13:15:59.638Z,3.20
2018-04-27T13:18:27.110Z,3.30
2018-04-27T13:20:55.379Z,2.90
2018-04-27T13:23:23.651Z,3.00
2018-04-27T13:25:51.925Z,2.87
2018-04-27T13:28:20.215Z,3.10
2018-04-27T13:30:48.457Z,2.60
2018-04-27T13:33:15.951Z,2.77
2018-04-27T13:35:43.976Z,3.20
2018-04-27T13:38:11.466Z,3.40
2018-04-27T13:40:38.934Z,2.67
2018-04-27T13:43:06.523Z,2.67
2018-04-27T13:45:34.006Z,3.33
2018-04-27T13:48:01.475Z,3.00
2018-04-27T13:50:28.962Z,2.63
2018-04-27T13:52:57.191Z,4.07
2018-04-27T13:55:24.681Z,3.20
2018-04-27T13:57:52.210Z,2.60
2018-04-27T14:00:19.684Z,2.90
2018-04-27T14:02:47.862Z,3.47
2018-04-27T14:05:15.477Z,2.93
2018-04-27T14:07:42.999Z,2.97
2018-04-27T14:10:10.507Z,2.80
2018-04-27T14:12:38.367Z,2.77
2018-04-27T14:15:05.848Z,3.20
2018-04-27T14:17:33.313Z,2.70
2018-04-27T14:20:00.796Z,2.83
2018-04-27T14:22:28.307Z,2.90
2018-04-27T14:24:55.809Z,2.93
2018-04-27T14:27:23.341Z,3.87
2018-04-27T14:29:50.875Z,3.77
2018-04-27T14:32:18.369Z,2.87
2018-04-27T14:34:45.833Z,2.40
2018-04-27T14:37:13.298Z,2.97
2018-04-27T14:39:40.804Z,2.77
2018-04-27T14:42:08.400Z,2.97
2018-04-27T14:44:35.887Z,2.50
2018-04-27T14:47:03.456Z,2.20
2018-04-27T14:49:31.785Z,2.90
2018-04-27T14:51:59.307Z,2.97
2018-04-27T14:54:26.894Z,2.40
2018-04-27T14:56:54.365Z,2.47
2018-04-27T14:59:22.707Z,2.73
2018-04-27T15:01:50.194Z,2.17
2018-04-27T15:04:17.708Z,3.40
2018-04-27T15:06:45.166Z,2.47
2018-04-27T15:09:12.677Z,2.70
2018-04-27T15:11:40.180Z,3.90
2018-04-27T15:14:07.792Z,2.67
2018-04-27T15:16:35.332Z,2.90
2018-04-27T15:19:02.817Z,2.97
2018-04-27T15:21:30.349Z,3.13
2018-04-27T15:23:57.845Z,2.80
2018-04-27T15:26:26.083Z,2.67
2018-04-27T15:28:53.577Z,2.50
2018-04-27T15:31:21.887Z,2.63
2018-04-27T15:33:49.735Z,2.50
2018-04-27T15:36:17.991Z,2.30
2018-04-27T15:38:45.471Z,2.40
2018-04-27T15:41:12.977Z,2.70
2018-04-27T15:43:40.457Z,2.97
2018-04-27T15:46:07.938Z,3.40
2018-04-27T15:48:35.479Z,2.43
2018-04-27T15:51:02.973Z,2.80
2018-04-27T15:53:30.492Z,2.70
2018-04-27T15:55:57.996Z,2.43
2018-04-27T15:58:25.476Z,2.50
2018-04-27T16:00:52.972Z,2.67
2018-04-27T16:03:20.449Z,2.70
2018-04-27T16:05:48.756Z,2.87
2018-04-27T16:08:16.251Z,2.60
2018-04-27T16:10:43.726Z,2.50
2018-04-27T16:13:20.501Z,2.40
2018-04-27T16:15:48.369Z,2.00
2018-04-27T16:18:15.846Z,2.30
2018-04-27T16:20:43.358Z,2.20
2018-04-27T16:23:10.833Z,2.20
2018-04-27T16:25:38.326Z,2.40
2018-04-27T16:28:05.838Z,2.57
2018-04-27T16:30:33.322Z,2.23
2018-04-27T16:33:02.010Z,2.50
2018-04-27T16:35:29.496Z,2.43
2018-04-27T16:37:56.984Z,2.50
2018-04-27T16:40:24.456Z,2.70
2018-04-27T16:42:51.958Z,2.90
2018-04-27T16:45:19.441Z,2.40
2018-04-27T16:47:46.945Z,2.40
2018-04-27T16:50:15.196Z,2.27
2018-04-27T16:52:42.683Z,2.27
2018-04-27T16:55:10.951Z,2.50
2018-04-27T16:57:38.421Z,2.60
2018-04-27T17:00:05.928Z,2.47
2018-04-27T17:02:33.399Z,2.10
2018-04-27T17:05:00.870Z,2.20
2018-04-27T17:07:28.440Z,2.03
2018-04-27T17:09:56.689Z,1.93
2018-04-27T17:12:24.173Z,2.20
2018-04-27T17:14:51.660Z,2.40
2018-04-27T17:17:19.148Z,2.30
2018-04-27T17:19:46.659Z,2.13
2018-04-27T17:22:14.134Z,2.57
2018-04-27T17:24:41.624Z,2.33
2018-04-27T17:27:09.131Z,2.60
2018-04-27T17:29:37.398Z,2.00
2018-04-27T17:32:04.901Z,2.30
2018-04-27T17:34:32.414Z,2.17
2018-04-27T17:37:00.149Z,2.43
2018-04-27T17:39:27.435Z,2.10
2018-04-27T17:41:56.436Z,2.70
2018-04-27T17:44:24.739Z,2.20
2018-04-27T17:46:52.201Z,2.83
2018-04-27T17:49:19.697Z,2.10
2018-04-27T17:51:47.213Z,2.30
2018-04-27T17:54:15.154Z,2.17
2018-04-27T17:56:42.665Z,1.93
2018-04-27T17:59:10.145Z,2.07
2018-04-27T18:01:37.635Z,2.10
2018-04-27T18:04:06.014Z,2.57
2018-04-27T18:06:33.489Z,2.50
2018-04-27T18:09:00.982Z,2.23
2018-04-27T18:11:28.560Z,2.00
2018-04-27T18:13:56.036Z,2.40
2018-04-27T18:16:24.294Z,2.17
2018-04-27T18:18:51.766Z,3.00
2018-04-27T18:21:20.034Z,2.57
2018-04-27T18:23:47.543Z,2.20
2018-04-27T18:26:15.046Z,2.40
2018-04-27T18:28:42.509Z,2.43
2018-04-27T18:31:09.997Z,3.30
2018-04-27T18:33:37.485Z,2.47
2018-04-27T18:36:04.981Z,2.30
2018-04-27T18:38:32.533Z,2.20
2018-04-27T18:41:00.007Z,2.23
2018-04-27T18:43:27.497Z,2.20
2018-04-27T18:45:55.000Z,2.47
2018-04-27T18:48:22.534Z,2.00
2018-04-27T18:50:50.925Z,2.10
2018-04-27T18:53:18.379Z,2.17
2018-04-27T18:55:45.895Z,2.60
2018-04-27T18:58:13.420Z,2.40
2018-04-27T19:00:40.923Z,2.33
2018-04-27T19:03:08.528Z,2.90
2018-04-27T19:05:37.360Z,3.33
2018-04-27T19:08:04.834Z,3.00
2018-04-27T19:10:33.246Z,2.37
2018-04-27T19:13:00.733Z,2.60
2018-04-27T19:15:28.249Z,2.83
2018-04-27T19:18:03.470Z,2.50
2018-04-27T19:20:32.592Z,2.60
2018-04-27T19:23:04.485Z,2.40
2018-04-27T19:25:32.814Z,2.60
2018-04-27T19:28:00.311Z,2.87
2018-04-27T19:30:29.689Z,2.77
2018-04-27T19:32:57.839Z,2.47
2018-04-27T19:35:25.303Z,2.30
2018-04-27T19:37:52.822Z,2.50
2018-04-27T19:40:21.839Z,2.70
2018-04-27T19:42:49.338Z,3.00
2018-04-27T19:45:16.870Z,2.63
2018-04-27T19:47:44.444Z,2.67
2018-04-27T19:50:12.367Z,3.37
2018-04-27T19:52:41.105Z,3.40
2018-04-27T19:55:09.446Z,3.20
2018-04-27T19:57:37.000Z,3.27
2018-04-27T20:00:04.510Z,3.37
2018-04-27T20:02:32.074Z,4.13
2018-04-27T20:04:59.580Z,3.90
2018-04-27T20:07:27.087Z,3.60
2018-04-27T20:09:54.601Z,2.90
2018-04-27T20:12:22.122Z,3.33
2018-04-27T20:14:50.417Z,3.20
2018-04-27T20:17:30.349Z,3.20
2018-04-27T20:19:58.658Z,2.80
2018-04-27T20:22:28.008Z,2.97
2018-04-27T20:25:07.496Z,2.90
2018-04-27T20:27:40.154Z,2.27
2018-04-27T20:30:11.148Z,2.77
2018-04-27T20:32:53.551Z,2.80
2018-04-27T20:35:21.198Z,2.67
2018-04-27T20:37:49.382Z,3.20
2018-04-27T20:40:16.860Z,2.43
2018-04-27T20:42:44.350Z,2.80
2018-04-27T20:45:19.214Z,2.90
2018-04-27T20:47:47.103Z,2.67
2018-04-27T20:50:14.577Z,2.73
2018-04-27T20:52:42.131Z,2.97
2018-04-27T20:55:14.050Z,2.67
2018-04-27T20:57:41.542Z,2.23
2018-04-27T21:00:09.044Z,2.40
2018-04-27T21:02:37.264Z,2.47
2018-04-27T21:05:04.732Z,2.60
2018-04-27T21:07:32.253Z,2.33
2018-04-27T21:09:59.757Z,2.13
2018-04-27T21:12:35.804Z,2.83
2018-04-27T21:15:07.874Z,2.50
2018-04-27T21:17:35.373Z,3.00
2018-04-27T21:20:03.632Z,2.47
2018-04-27T21:22:31.119Z,2.60
2018-04-27T21:24:58.624Z,2.87
2018-04-27T21:27:27.088Z,2.50
2018-04-27T21:29:54.588Z,2.17
2018-04-27T21:32:22.077Z,2.30
2018-04-27T21:34:49.553Z,2.50
2018-04-27T21:37:17.051Z,2.10
2018-04-27T21:39:44.532Z,2.10
2018-04-27T21:42:16.410Z,2.27
2018-04-27T21:44:44.704Z,2.10
2018-04-27T21:47:15.735Z,2.70
2018-04-27T21:49:44.137Z,2.20
2018-04-27T21:52:17.315Z,2.13
2018-04-27T21:54:45.533Z,2.17
2018-04-27T21:57:32.529Z,2.70
2018-04-27T22:00:25.568Z,2.40
2018-04-27T22:03:14.700Z,2.60
2018-04-27T22:05:43.077Z,2.10
2018-04-27T22:08:22.340Z,2.30
2018-04-27T22:10:49.888Z,2.50
2018-04-27T22:13:17.452Z,2.13
2018-04-27T22:15:45.006Z,2.10
2018-04-27T22:18:12.567Z,2.10
2018-04-27T22:20:44.105Z,2.50
2018-04-27T22:23:11.675Z,2.90
2018-04-27T22:25:40.168Z,2.60
2018-04-27T22:28:07.823Z,2.23
2018-04-27T22:30:37.116Z,2.40
2018-04-27T22:33:31.408Z,2.60
2018-04-27T22:36:05.501Z,2.37
2018-04-27T22:38:41.539Z,2.00
2018-04-27T22:41:09.921Z,2.33
2018-04-27T22:43:39.994Z,5.90
2018-04-27T22:46:12.429Z,2.70
2018-04-27T22:48:51.982Z,2.70
2018-04-27T22:51:22.939Z,2.37
2018-04-27T22:53:52.510Z,3.83
2018-04-27T22:56:27.615Z,2.20
2018-04-27T22:58:55.147Z,2.17
2018-04-27T23:01:22.820Z,2.17
2018-04-27T23:03:50.295Z,2.50
2018-04-27T23:06:17.769Z,2.03
2018-04-27T23:08:49.917Z,2.23
2018-04-27T23:11:24.710Z,2.40
2018-04-27T23:14:07.887Z,2.40
2018-04-27T23:16:35.384Z,2.40
2018-04-27T23:19:02.862Z,2.30
2018-04-27T23:21:52.903Z,2.27
2018-04-27T23:24:20.402Z,2.13
2018-04-27T23:27:06.421Z,2.17
2018-04-27T23:29:33.904Z,1.90
2018-04-27T23:32:01.392Z,2.13
2018-04-27T23:34:28.853Z,2.33
2018-04-27T23:36:59.118Z,2.10
2018-04-27T23:39:26.582Z,3.57
2018-04-27T23:41:54.089Z,2.23
2018-04-27T23:44:21.614Z,2.20
2018-04-27T23:46:49.862Z,2.03
2018-04-27T23:49:17.345Z,1.97
2018-04-27T23:51:45.710Z,2.87
2018-04-27T23:54:14.030Z,2.00
2018-04-27T23:56:42.790Z,1.90
2018-04-27T23:59:10.275Z,2.17
